createdAt,value
2019-05-18T00:00:19.435Z,36.10
2019-05-18T00:02:53.463Z,33.53
2019-05-18T00:05:25.477Z,35.58
2019-05-18T00:07:57.655Z,41.58
2019-05-18T00:10:30.154Z,35.00
2019-05-18T00:13:02.213Z,38.30
2019-05-18T00:15:34.502Z,41.30
2019-05-18T00:18:06.883Z,44.03
2019-05-18T00:20:58.085Z,33.55
2019-05-18T00:23:31.371Z,40.78
2019-05-18T00:26:23.416Z,38.08
2019-05-18T00:29:15.569Z,37.55
2019-05-18T00:43:25.528Z,37.70
2019-05-18T00:45:57.647Z,28.90
2019-05-18T00:48:29.689Z,39.00
2019-05-18T00:51:02.301Z,35.43
2019-05-18T00:53:34.489Z,30.90
2019-05-18T00:56:06.418Z,31.60
2019-05-18T00:58:38.480Z,34.30
2019-05-18T01:01:30.610Z,34.73
2019-05-18T01:04:03.424Z,33.05
2019-05-18T01:06:36.014Z,49.03
2019-05-18T01:09:09.822Z,32.98
2019-05-18T01:11:42.252Z,39.48
2019-05-18T01:14:14.357Z,29.52
2019-05-18T01:16:46.849Z,30.68
2019-05-18T01:19:19.200Z,35.58
2019-05-18T01:21:51.314Z,31.45
2019-05-18T01:24:37.480Z,27.07
2019-05-18T01:27:09.633Z,28.30
2019-05-18T01:29:44.898Z,32.70
2019-05-18T01:32:37.116Z,32.20
2019-05-18T01:35:11.268Z,33.35
2019-05-18T01:37:43.225Z,30.37
2019-05-18T01:40:16.796Z,39.73
2019-05-18T01:42:49.065Z,34.73
2019-05-18T01:45:23.403Z,30.88
2019-05-18T01:47:55.488Z,30.65
2019-05-18T01:50:28.050Z,30.95
2019-05-18T01:53:53.628Z,31.90
2019-05-18T01:56:25.955Z,27.52
2019-05-18T01:59:00.854Z,29.98
2019-05-18T02:01:34.993Z,31.10
2019-05-18T02:04:10.656Z,33.45
2019-05-18T02:07:01.958Z,28.15
2019-05-18T02:09:34.251Z,28.10
2019-05-18T02:12:06.722Z,27.90
2019-05-18T02:14:39.223Z,27.10
2019-05-18T02:17:11.307Z,27.37
2019-05-18T02:20:03.615Z,32.00
2019-05-18T02:22:36.550Z,26.05
2019-05-18T02:25:16.994Z,26.42
2019-05-18T02:27:51.684Z,37.48
2019-05-18T02:30:24.350Z,33.75
2019-05-18T02:32:59.947Z,23.77
2019-05-18T02:35:32.455Z,24.60
2019-05-18T02:38:05.991Z,24.02
2019-05-18T02:40:48.655Z,31.68
2019-05-18T02:43:21.194Z,31.05
2019-05-18T02:45:53.244Z,27.45
2019-05-18T02:48:25.677Z,31.48
2019-05-18T02:50:57.997Z,30.82
2019-05-18T02:53:42.528Z,28.40
2019-05-18T02:56:17.896Z,21.50
2019-05-18T02:59:10.341Z,24.95
2019-05-18T03:01:53.827Z,32.90
2019-05-18T03:04:26.315Z,34.50
2019-05-18T03:06:58.765Z,21.37
2019-05-18T03:09:37.840Z,27.40
2019-05-18T03:12:10.823Z,32.88
2019-05-18T03:14:43.301Z,28.17
2019-05-18T03:17:15.290Z,26.15
2019-05-18T03:19:47.546Z,28.60
2019-05-18T03:22:19.630Z,22.30
2019-05-18T03:24:53.473Z,30.70
2019-05-18T03:27:25.937Z,27.17
2019-05-18T03:30:18.152Z,23.05
2019-05-18T03:32:51.330Z,26.82
2019-05-18T03:35:23.661Z,26.70
2019-05-18T03:37:56.387Z,26.87
2019-05-18T03:40:28.356Z,24.70
2019-05-18T03:43:00.594Z,30.43
2019-05-18T03:45:32.801Z,19.12
2019-05-18T03:48:05.362Z,33.80
2019-05-18T03:50:38.278Z,28.65
2019-05-18T03:53:11.982Z,24.92
2019-05-18T03:55:44.737Z,21.12
2019-05-18T03:58:16.707Z,24.77
2019-05-18T04:00:48.588Z,24.52
2019-05-18T04:03:20.571Z,21.57
2019-05-18T04:05:52.971Z,23.73
2019-05-18T04:08:26.244Z,19.98
2019-05-18T04:10:58.681Z,28.38
2019-05-18T04:13:30.932Z,33.83
2019-05-18T04:16:03.403Z,21.20
2019-05-18T04:18:35.537Z,25.40
2019-05-18T04:21:13.012Z,28.83
2019-05-18T04:23:43.817Z,21.48
2019-05-18T04:26:16.149Z,30.95
2019-05-18T04:28:48.835Z,29.82
2019-05-18T04:31:24.143Z,22.20
2019-05-18T04:34:20.145Z,20.97
2019-05-18T04:36:52.957Z,24.57
2019-05-18T04:39:25.226Z,18.90
2019-05-18T04:41:57.536Z,23.50
2019-05-18T04:44:29.762Z,27.45
2019-05-18T04:47:02.197Z,27.27
2019-05-18T04:49:37.251Z,24.50
2019-05-18T04:52:10.636Z,29.15
2019-05-18T04:54:43.372Z,27.73
2019-05-18T04:57:15.777Z,21.20
2019-05-18T04:59:47.677Z,22.05
2019-05-18T05:02:19.788Z,21.85
2019-05-18T05:04:56.392Z,18.30
2019-05-18T05:07:26.022Z,23.67
2019-05-18T05:10:00.086Z,19.90
2019-05-18T05:12:32.261Z,19.70
2019-05-18T05:15:05.031Z,24.55
2019-05-18T05:17:37.596Z,22.48
2019-05-18T05:20:28.682Z,15.25
2019-05-18T05:23:01.162Z,16.40
2019-05-18T05:25:34.072Z,29.85
2019-05-18T05:28:07.297Z,20.57
2019-05-18T05:30:39.756Z,21.82
2019-05-18T05:33:12.242Z,22.52
2019-05-18T05:35:45.082Z,20.20
2019-05-18T05:38:17.311Z,20.75
2019-05-18T05:40:49.364Z,23.32
2019-05-18T05:43:21.929Z,27.87
2019-05-18T05:45:55.866Z,16.07
2019-05-18T05:48:28.011Z,20.65
2019-05-18T05:51:00.410Z,21.15
2019-05-18T05:53:32.789Z,24.25
2019-05-18T05:56:05.087Z,18.87
2019-05-18T05:58:37.485Z,17.45
2019-05-18T06:01:13.065Z,20.37
2019-05-18T06:03:46.385Z,15.55
2019-05-18T06:06:19.048Z,16.05
2019-05-18T06:08:50.965Z,19.92
2019-05-18T06:11:23.513Z,17.70
2019-05-18T06:13:55.447Z,18.95
2019-05-18T06:16:28.221Z,18.12
2019-05-18T06:19:00.656Z,15.65
2019-05-18T06:21:52.837Z,20.65
2019-05-18T06:24:25.765Z,27.02
2019-05-18T06:26:57.950Z,15.13
2019-05-18T06:29:30.839Z,25.32
2019-05-18T06:32:06.173Z,30.15
2019-05-18T06:34:41.457Z,22.37
2019-05-18T06:37:14.042Z,21.02
2019-05-18T06:39:46.345Z,21.33
2019-05-18T06:42:19.058Z,23.00
2019-05-18T06:44:51.478Z,18.52
2019-05-18T06:47:28.521Z,13.80
2019-05-18T06:50:00.778Z,23.47
2019-05-18T06:52:32.987Z,15.65
2019-05-18T06:55:06.398Z,19.02
2019-05-18T06:57:39.732Z,19.12
2019-05-18T07:00:14.385Z,19.02
2019-05-18T07:02:46.702Z,19.27
2019-05-18T07:05:24.171Z,20.43
2019-05-18T07:07:56.467Z,18.82
2019-05-18T07:10:28.746Z,48.63
2019-05-18T07:13:22.739Z,21.95
2019-05-18T07:15:55.270Z,21.33
2019-05-18T07:18:27.608Z,18.98
2019-05-18T07:20:59.766Z,22.35
2019-05-18T07:23:31.890Z,19.60
2019-05-18T07:26:08.266Z,21.23
2019-05-18T07:29:05.410Z,31.27
2019-05-18T07:31:54.020Z,22.65
2019-05-18T07:34:26.770Z,20.02
2019-05-18T07:37:00.667Z,20.97
2019-05-18T07:39:36.265Z,15.35
2019-05-18T07:42:09.423Z,21.37
2019-05-18T07:44:41.283Z,16.85
2019-05-18T07:47:14.897Z,17.40
2019-05-18T07:49:49.482Z,25.55
2019-05-18T07:52:22.903Z,13.45
2019-05-18T07:54:55.097Z,19.85
2019-05-18T07:57:27.220Z,19.27
2019-05-18T07:59:59.598Z,16.00
2019-05-18T08:02:31.605Z,24.18
2019-05-18T08:05:05.003Z,18.30
2019-05-18T08:07:37.478Z,17.42
2019-05-18T08:10:30.831Z,20.12
2019-05-18T08:13:04.435Z,22.82
2019-05-18T08:15:37.620Z,19.00
2019-05-18T08:18:09.897Z,23.38
2019-05-18T08:20:42.399Z,25.40
2019-05-18T08:23:14.410Z,18.17
2019-05-18T08:26:05.670Z,16.70
2019-05-18T08:28:37.966Z,17.02
2019-05-18T08:31:10.416Z,24.07
2019-05-18T08:33:43.064Z,20.88
2019-05-18T08:36:15.043Z,21.17
2019-05-18T08:38:48.595Z,19.32
2019-05-18T08:41:20.631Z,15.85
2019-05-18T08:43:52.799Z,23.25
2019-05-18T08:46:25.150Z,19.82
2019-05-18T08:48:58.367Z,20.55
2019-05-18T08:51:30.597Z,25.00
2019-05-18T08:54:02.773Z,17.42
2019-05-18T08:56:35.482Z,17.77
2019-05-18T08:59:08.882Z,18.37
2019-05-18T09:01:41.300Z,25.52
2019-05-18T09:04:13.747Z,21.25
2019-05-18T09:06:45.890Z,18.75
2019-05-18T09:09:18.572Z,19.70
2019-05-18T09:11:50.994Z,19.12
2019-05-18T09:14:24.940Z,24.55
2019-05-18T09:16:56.799Z,22.42
2019-05-18T09:19:28.983Z,22.00
2019-05-18T09:22:01.262Z,21.27
2019-05-18T09:24:33.187Z,20.90
2019-05-18T09:27:05.784Z,17.20
2019-05-18T09:29:39.065Z,20.60
2019-05-18T09:32:11.571Z,17.12
2019-05-18T09:34:43.967Z,16.07
2019-05-18T09:37:19.495Z,20.90
2019-05-18T09:39:51.763Z,20.57
2019-05-18T09:42:24.467Z,26.25
2019-05-18T09:45:03.380Z,17.95
2019-05-18T09:47:35.760Z,14.10
2019-05-18T09:50:10.966Z,22.55
2019-05-18T09:52:45.465Z,18.25
2019-05-18T09:55:18.217Z,27.75
2019-05-18T09:57:50.494Z,24.63
2019-05-18T10:00:23.564Z,26.70
2019-05-18T10:02:55.968Z,21.10
2019-05-18T10:05:28.122Z,24.63
2019-05-18T10:08:00.583Z,19.82
2019-05-18T10:10:33.714Z,21.87
2019-05-18T10:13:09.316Z,27.75
2019-05-18T10:15:41.479Z,21.23
2019-05-18T10:18:21.867Z,21.27
2019-05-18T10:20:53.787Z,19.27
2019-05-18T10:23:27.780Z,17.45
2019-05-18T10:26:02.638Z,19.20
2019-05-18T10:28:34.751Z,19.17
2019-05-18T10:31:27.302Z,19.02
2019-05-18T10:34:00.330Z,28.83
2019-05-18T10:36:32.637Z,33.23
2019-05-18T10:39:05.773Z,29.45
2019-05-18T10:41:38.234Z,17.48
2019-05-18T10:44:10.255Z,18.87
2019-05-18T10:46:42.670Z,19.48
2019-05-18T10:49:15.755Z,19.90
2019-05-18T10:51:48.010Z,21.52
2019-05-18T10:54:20.473Z,20.95
2019-05-18T10:56:52.794Z,21.62
2019-05-18T10:59:24.731Z,22.42
2019-05-18T11:01:57.126Z,24.00
2019-05-18T11:04:29.361Z,17.80
2019-05-18T11:07:01.531Z,23.05
2019-05-18T11:09:33.873Z,23.60
2019-05-18T11:12:06.065Z,25.57
2019-05-18T11:14:38.479Z,25.45
2019-05-18T11:17:10.762Z,34.20
2019-05-18T11:19:43.033Z,27.13
2019-05-18T11:22:15.112Z,37.23
2019-05-18T11:25:09.269Z,20.85
2019-05-18T11:27:41.188Z,22.87
2019-05-18T11:30:15.773Z,26.00
2019-05-18T11:32:48.614Z,28.55
2019-05-18T11:35:22.171Z,28.35
2019-05-18T11:37:54.421Z,31.80
2019-05-18T11:40:27.003Z,21.40
2019-05-18T11:42:59.521Z,25.75
2019-05-18T11:45:31.961Z,33.28
2019-05-18T11:48:04.224Z,34.10
2019-05-18T11:50:37.516Z,25.95
2019-05-18T11:53:10.349Z,29.37
2019-05-18T11:55:43.196Z,25.32
2019-05-18T11:58:15.753Z,22.07
2019-05-18T12:00:48.348Z,33.15
2019-05-18T12:03:40.605Z,35.30
2019-05-18T12:06:12.660Z,26.75
2019-05-18T12:08:45.049Z,26.68
2019-05-18T12:11:17.264Z,22.32
2019-05-18T12:13:49.375Z,25.95
2019-05-18T12:16:21.615Z,25.37
2019-05-18T12:18:57.464Z,26.68
2019-05-18T12:21:28.390Z,32.20
2019-05-18T12:24:14.174Z,24.50
2019-05-18T12:26:34.954Z,31.93
2019-05-18T12:29:07.464Z,25.62
2019-05-18T12:31:39.656Z,27.05
2019-05-18T12:34:16.550Z,24.40
2019-05-18T12:36:48.725Z,33.95
2019-05-18T12:39:21.297Z,22.10
2019-05-18T12:41:54.068Z,24.12
2019-05-18T12:44:26.402Z,31.00
2019-05-18T12:46:58.663Z,25.60
2019-05-18T12:49:31.302Z,22.17
2019-05-18T12:52:03.760Z,22.13
2019-05-18T12:54:46.160Z,30.20
2019-05-18T12:57:10.280Z,28.17
2019-05-18T12:59:42.648Z,30.10
2019-05-18T13:02:15.170Z,29.05
2019-05-18T13:04:47.512Z,27.10
2019-05-18T13:07:19.673Z,26.35
2019-05-18T13:10:19.283Z,25.62
2019-05-18T13:12:51.588Z,29.63
2019-05-18T13:15:24.116Z,29.60
2019-05-18T13:17:56.710Z,28.02
2019-05-18T13:20:29.496Z,32.67
2019-05-18T13:23:02.031Z,29.42
2019-05-18T13:25:34.012Z,22.77
2019-05-18T13:28:06.154Z,27.90
2019-05-18T13:30:38.511Z,33.63
2019-05-18T13:33:10.477Z,30.25
2019-05-18T13:35:45.514Z,24.57
2019-05-18T13:38:17.271Z,22.07
2019-05-18T13:40:49.816Z,26.77
2019-05-18T13:43:42.134Z,33.08
2019-05-18T13:46:15.773Z,30.92
2019-05-18T13:48:48.447Z,26.02
2019-05-18T13:51:20.533Z,23.67
2019-05-18T13:54:13.104Z,25.00
2019-05-18T13:56:47.251Z,34.60
2019-05-18T13:59:47.814Z,33.50
2019-05-18T14:02:20.058Z,29.98
2019-05-18T14:04:52.699Z,26.57
2019-05-18T14:07:24.698Z,32.60
2019-05-18T14:09:57.258Z,28.30
2019-05-18T14:12:29.712Z,26.93
2019-05-18T14:15:02.166Z,30.95
2019-05-18T14:17:34.762Z,35.10
2019-05-18T14:20:08.402Z,26.82
2019-05-18T14:22:42.283Z,24.90
2019-05-18T14:25:20.040Z,34.95
2019-05-18T14:27:49.185Z,30.75
2019-05-18T14:30:22.327Z,36.42
2019-05-18T14:32:54.632Z,25.55
2019-05-18T14:35:26.978Z,31.68
2019-05-18T14:38:18.498Z,23.87
2019-05-18T14:40:50.554Z,29.60
2019-05-18T14:43:32.016Z,25.55
2019-05-18T14:46:04.154Z,25.62
2019-05-18T14:48:36.824Z,28.05
2019-05-18T14:51:09.632Z,30.95
2019-05-18T14:54:02.057Z,33.30
2019-05-18T14:56:35.021Z,30.30
2019-05-18T14:59:07.425Z,27.10
2019-05-18T15:01:39.771Z,28.42
2019-05-18T15:04:11.922Z,30.72
2019-05-18T15:06:44.194Z,30.30
2019-05-18T15:09:16.603Z,38.65
2019-05-18T15:11:48.977Z,30.68
2019-05-18T15:14:20.819Z,22.93
2019-05-18T15:16:54.214Z,31.15
2019-05-18T15:19:26.609Z,26.37
2019-05-18T15:21:59.701Z,31.57
2019-05-18T15:24:31.740Z,19.48
2019-05-18T15:27:22.821Z,24.25
2019-05-18T15:29:54.940Z,25.45
2019-05-18T15:32:26.902Z,26.10
2019-05-18T15:34:59.045Z,26.95
2019-05-18T15:37:31.195Z,26.40
2019-05-18T15:40:03.777Z,28.70
2019-05-18T15:42:36.047Z,24.27
2019-05-18T15:45:09.624Z,31.07
2019-05-18T15:47:54.581Z,30.12
2019-05-18T15:50:46.816Z,31.00
2019-05-18T15:53:19.188Z,29.95
2019-05-18T15:56:04.744Z,27.90
2019-05-18T15:58:25.200Z,22.42
2019-05-18T16:00:58.648Z,24.77
2019-05-18T16:03:30.757Z,24.80
2019-05-18T16:06:04.124Z,36.50
2019-05-18T16:08:36.708Z,24.95
2019-05-18T16:11:08.942Z,24.25
2019-05-18T16:13:41.311Z,22.62
2019-05-18T16:16:13.327Z,24.77
2019-05-18T16:18:45.503Z,23.35
2019-05-18T16:21:37.803Z,23.35
2019-05-18T16:24:10.606Z,27.00
2019-05-18T16:26:42.902Z,25.27
2019-05-18T16:29:15.101Z,29.87
2019-05-18T16:31:47.765Z,25.08
2019-05-18T16:34:23.965Z,27.05
2019-05-18T16:37:16.156Z,26.35
2019-05-18T16:39:48.721Z,24.55
2019-05-18T16:42:22.191Z,35.17
2019-05-18T16:44:54.358Z,28.75
2019-05-18T16:47:26.975Z,27.77
2019-05-18T16:49:59.208Z,30.90
2019-05-18T16:52:31.554Z,32.45
2019-05-18T16:55:03.693Z,32.03
2019-05-18T16:57:36.100Z,30.77
2019-05-18T17:00:15.736Z,28.32
2019-05-18T17:02:46.086Z,26.42
2019-05-18T17:05:18.769Z,27.13
2019-05-18T17:07:51.221Z,27.73
2019-05-18T17:10:23.998Z,26.42
2019-05-18T17:12:55.924Z,29.63
2019-05-18T17:15:28.353Z,28.75
2019-05-18T17:18:00.572Z,31.82
2019-05-18T17:20:32.567Z,32.03
2019-05-18T17:23:04.623Z,27.32
2019-05-18T17:25:37.614Z,33.02
2019-05-18T17:28:09.580Z,31.15
2019-05-18T17:31:00.834Z,27.07
2019-05-18T17:33:33.528Z,26.70
2019-05-18T17:36:07.290Z,35.73
2019-05-18T17:38:39.389Z,33.40
2019-05-18T17:41:11.809Z,35.55
2019-05-18T17:43:44.287Z,27.17
2019-05-18T17:46:16.367Z,35.78
2019-05-18T17:48:48.208Z,35.03
2019-05-18T17:51:20.571Z,28.42
2019-05-18T17:53:52.753Z,33.02
2019-05-18T17:56:24.831Z,27.40
2019-05-18T17:58:57.402Z,32.93
2019-05-18T18:01:29.561Z,25.90
2019-05-18T18:04:01.294Z,28.30
2019-05-18T18:06:33.501Z,29.60
2019-05-18T18:09:07.010Z,33.70
2019-05-18T18:11:39.130Z,38.00
2019-05-18T18:14:11.141Z,30.43
2019-05-18T18:16:43.290Z,26.93
2019-05-18T18:19:15.539Z,29.65
2019-05-18T18:21:47.853Z,33.58
2019-05-18T18:24:20.329Z,29.72
2019-05-18T18:26:53.930Z,37.25
2019-05-18T18:29:26.914Z,35.15
2019-05-18T18:31:58.929Z,29.60
2019-05-18T18:34:32.119Z,30.72
2019-05-18T18:37:04.208Z,28.42
2019-05-18T18:39:36.835Z,28.07
2019-05-18T18:42:08.737Z,28.50
2019-05-18T18:44:41.147Z,36.40
2019-05-18T18:47:13.654Z,28.07
2019-05-18T18:49:46.054Z,27.80
2019-05-18T18:52:18.286Z,29.15
2019-05-18T18:54:50.518Z,32.65
2019-05-18T18:57:22.469Z,29.63
2019-05-18T18:59:56.992Z,31.90
2019-05-18T19:02:28.915Z,38.65
2019-05-18T19:05:01.044Z,30.62
2019-05-18T19:07:33.100Z,31.27
2019-05-18T19:10:07.445Z,31.23
2019-05-18T19:12:40.152Z,30.00
2019-05-18T19:15:13.571Z,33.15
2019-05-18T19:17:45.585Z,33.33
2019-05-18T19:20:18.433Z,36.73
2019-05-18T19:22:50.530Z,34.63
2019-05-18T19:25:22.821Z,28.83
2019-05-18T19:27:55.490Z,35.65
2019-05-18T19:30:27.977Z,30.45
2019-05-18T19:33:00.412Z,38.67
2019-05-18T19:35:34.102Z,34.65
2019-05-18T19:38:09.218Z,30.05
2019-05-18T19:40:41.920Z,34.40
2019-05-18T19:43:22.871Z,33.55
2019-05-18T19:45:55.252Z,30.00
2019-05-18T19:48:28.199Z,33.53
2019-05-18T19:51:01.087Z,28.92
2019-05-18T19:53:33.322Z,31.95
2019-05-18T19:56:05.956Z,36.10
2019-05-18T19:58:38.099Z,35.28
2019-05-18T20:01:10.096Z,61.15
2019-05-18T20:03:42.120Z,32.80
2019-05-18T20:06:14.827Z,32.88
2019-05-18T20:08:46.960Z,33.98
2019-05-18T20:11:19.016Z,36.23
2019-05-18T20:13:50.856Z,39.18
2019-05-18T20:16:22.819Z,35.80
2019-05-18T20:18:55.160Z,33.73
2019-05-18T20:21:27.295Z,38.73
2019-05-18T20:23:59.353Z,39.38
2019-05-18T20:26:31.759Z,34.08
2019-05-18T20:29:04.011Z,40.10
2019-05-18T20:31:36.164Z,33.92
2019-05-18T20:34:08.635Z,30.72
2019-05-18T20:36:42.934Z,30.12
2019-05-18T20:39:15.049Z,35.85
2019-05-18T20:41:47.222Z,38.08
2019-05-18T20:44:19.542Z,37.33
2019-05-18T20:46:51.501Z,32.63
2019-05-18T20:49:23.712Z,41.10
2019-05-18T20:51:55.772Z,36.10
2019-05-18T20:54:27.723Z,41.63
2019-05-18T20:56:59.837Z,37.48
2019-05-18T20:59:32.232Z,46.33
2019-05-18T21:02:04.221Z,36.63
2019-05-18T21:04:36.194Z,36.80
2019-05-18T21:07:08.717Z,48.50
2019-05-18T21:09:41.051Z,36.68
2019-05-18T21:12:13.116Z,44.90
2019-05-18T21:14:45.264Z,42.70
2019-05-18T21:17:17.344Z,32.23
2019-05-18T21:19:49.484Z,38.73
2019-05-18T21:22:21.583Z,42.08
2019-05-18T21:24:53.704Z,34.73
2019-05-18T21:27:26.334Z,37.53
2019-05-18T21:29:58.642Z,37.93
2019-05-18T21:32:30.669Z,35.80
2019-05-18T21:35:02.982Z,41.80
2019-05-18T21:37:36.558Z,33.48
2019-05-18T21:40:11.068Z,32.58
2019-05-18T21:42:44.152Z,37.20
2019-05-18T21:45:36.540Z,33.95
2019-05-18T21:48:08.615Z,36.15
2019-05-18T21:50:40.792Z,39.33
2019-05-18T21:53:13.039Z,30.90
2019-05-18T21:55:45.302Z,39.75
2019-05-18T21:58:17.247Z,38.00
2019-05-18T22:00:51.817Z,33.10
2019-05-18T22:03:24.075Z,31.35
2019-05-18T22:05:56.230Z,32.42
2019-05-18T22:08:28.345Z,30.97
2019-05-18T22:11:00.593Z,33.18
2019-05-18T22:13:32.816Z,36.55
2019-05-18T22:16:05.245Z,39.10
2019-05-18T22:18:37.336Z,36.20
2019-05-18T22:21:09.675Z,39.85
2019-05-18T22:23:42.175Z,32.55
2019-05-18T22:26:14.233Z,36.17
2019-05-18T22:28:46.282Z,32.33
2019-05-18T22:31:19.806Z,33.30
2019-05-18T22:33:52.967Z,36.95
2019-05-18T22:36:25.744Z,37.70
2019-05-18T22:38:58.833Z,31.57
2019-05-18T22:41:31.703Z,39.63
2019-05-18T22:44:23.958Z,35.15
2019-05-18T22:46:57.486Z,31.45
2019-05-18T22:49:29.564Z,35.70
2019-05-18T22:52:03.720Z,34.18
2019-05-18T22:54:36.054Z,30.60
2019-05-18T22:57:08.234Z,33.78
2019-05-18T22:59:40.485Z,33.70
2019-05-18T23:02:12.907Z,39.13
2019-05-18T23:04:45.179Z,36.13
2019-05-18T23:07:17.807Z,41.88
2019-05-18T23:09:49.784Z,33.90
2019-05-18T23:12:21.827Z,37.85
2019-05-18T23:14:54.205Z,41.83
2019-05-18T23:17:26.328Z,42.27
2019-05-18T23:19:59.510Z,37.78
2019-05-18T23:22:32.439Z,29.90
2019-05-18T23:25:04.905Z,38.80
2019-05-18T23:27:37.275Z,39.75
2019-05-18T23:30:11.336Z,33.78
2019-05-18T23:32:44.081Z,40.20
2019-05-18T23:35:16.267Z,35.43
2019-05-18T23:37:48.436Z,40.30
2019-05-18T23:40:20.915Z,31.97
2019-05-18T23:42:53.051Z,29.30
2019-05-18T23:45:25.789Z,35.52
2019-05-18T23:47:59.587Z,31.57
2019-05-18T23:50:31.843Z,29.72
2019-05-18T23:53:04.167Z,32.73
2019-05-18T23:55:37.518Z,32.80
2019-05-18T23:58:09.965Z,39.10
